sensor_id;sensor_type;location;lat;lon;timestamp;P1;durP1;ratioP1;P2;durP2;ratioP2
43817;SDS011;29868;47.360;18.984;2022-08-16T00:00:39;8.57;;;5.55;;
43817;SDS011;29868;47.360;18.984;2022-08-16T00:03:08;9.38;;;5.40;;
43817;SDS011;29868;47.360;18.984;2022-08-16T00:05:36;6.80;;;4.95;;
43817;SDS011;29868;47.360;18.984;2022-08-16T00:08:02;8.13;;;5.15;;
43817;SDS011;29868;47.360;18.984;2022-08-16T00:10:29;7.57;;;5.20;;
43817;SDS011;29868;47.360;18.984;2022-08-16T00:12:57;8.27;;;5.13;;
43817;SDS011;29868;47.360;18.984;2022-08-16T00:15:43;10.23;;;5.50;;
43817;SDS011;29868;47.360;18.984;2022-08-16T00:18:11;8.48;;;5.18;;
43817;SDS011;29868;47.360;18.984;2022-08-16T00:20:38;7.20;;;5.30;;
43817;SDS011;29868;47.360;18.984;2022-08-16T00:23:05;7.97;;;5.28;;
43817;SDS011;29868;47.360;18.984;2022-08-16T00:25:31;9.88;;;5.60;;
43817;SDS011;29868;47.360;18.984;2022-08-16T00:27:57;8.13;;;5.65;;
43817;SDS011;29868;47.360;18.984;2022-08-16T00:30:23;8.38;;;5.47;;
43817;SDS011;29868;47.360;18.984;2022-08-16T00:32:49;7.97;;;5.85;;
43817;SDS011;29868;47.360;18.984;2022-08-16T00:35:19;7.25;;;5.28;;
43817;SDS011;29868;47.360;18.984;2022-08-16T00:37:47;9.05;;;5.57;;
43817;SDS011;29868;47.360;18.984;2022-08-16T00:40:14;9.70;;;5.30;;
43817;SDS011;29868;47.360;18.984;2022-08-16T00:42:45;10.02;;;5.53;;
43817;SDS011;29868;47.360;18.984;2022-08-16T00:50:12;10.45;;;5.95;;
43817;SDS011;29868;47.360;18.984;2022-08-16T00:52:39;7.50;;;5.38;;
43817;SDS011;29868;47.360;18.984;2022-08-16T00:55:05;8.35;;;5.68;;
43817;SDS011;29868;47.360;18.984;2022-08-16T00:57:31;10.25;;;5.78;;
43817;SDS011;29868;47.360;18.984;2022-08-16T00:59:57;10.40;;;6.00;;
43817;SDS011;29868;47.360;18.984;2022-08-16T01:02:23;10.38;;;6.13;;
43817;SDS011;29868;47.360;18.984;2022-08-16T01:04:48;9.90;;;5.90;;
43817;SDS011;29868;47.360;18.984;2022-08-16T01:07:14;9.30;;;5.97;;
43817;SDS011;29868;47.360;18.984;2022-08-16T01:09:39;9.68;;;5.95;;
43817;SDS011;29868;47.360;18.984;2022-08-16T01:12:06;8.48;;;6.28;;
43817;SDS011;29868;47.360;18.984;2022-08-16T01:14:37;8.98;;;6.20;;
43817;SDS011;29868;47.360;18.984;2022-08-16T01:17:05;8.38;;;5.93;;
43817;SDS011;29868;47.360;18.984;2022-08-16T01:19:32;8.65;;;6.05;;
43817;SDS011;29868;47.360;18.984;2022-08-16T01:24:55;9.50;;;6.15;;
43817;SDS011;29868;47.360;18.984;2022-08-16T01:27:58;7.82;;;5.40;;
43817;SDS011;29868;47.360;18.984;2022-08-16T01:30:18;9.68;;;6.30;;
43817;SDS011;29868;47.360;18.984;2022-08-16T01:32:53;8.35;;;5.80;;
43817;SDS011;29868;47.360;18.984;2022-08-16T01:35:22;8.80;;;6.10;;
43817;SDS011;29868;47.360;18.984;2022-08-16T01:37:52;9.65;;;6.30;;
43817;SDS011;29868;47.360;18.984;2022-08-16T01:40:21;9.32;;;5.68;;
43817;SDS011;29868;47.360;18.984;2022-08-16T01:42:49;11.35;;;5.90;;
43817;SDS011;29868;47.360;18.984;2022-08-16T01:45:16;8.65;;;6.20;;
43817;SDS011;29868;47.360;18.984;2022-08-16T01:47:43;11.32;;;6.30;;
43817;SDS011;29868;47.360;18.984;2022-08-16T01:50:11;8.10;;;6.18;;
43817;SDS011;29868;47.360;18.984;2022-08-16T01:52:37;9.80;;;5.68;;
43817;SDS011;29868;47.360;18.984;2022-08-16T01:55:05;17.13;;;6.30;;
43817;SDS011;29868;47.360;18.984;2022-08-16T01:57:31;7.93;;;5.80;;
43817;SDS011;29868;47.360;18.984;2022-08-16T01:59:57;9.15;;;6.40;;
43817;SDS011;29868;47.360;18.984;2022-08-16T02:02:24;8.05;;;6.05;;
43817;SDS011;29868;47.360;18.984;2022-08-16T02:04:50;8.38;;;6.10;;
43817;SDS011;29868;47.360;18.984;2022-08-16T02:07:16;9.63;;;6.32;;
43817;SDS011;29868;47.360;18.984;2022-08-16T02:09:43;8.25;;;5.90;;
43817;SDS011;29868;47.360;18.984;2022-08-16T02:12:11;9.15;;;6.00;;
43817;SDS011;29868;47.360;18.984;2022-08-16T02:14:37;9.88;;;6.28;;
43817;SDS011;29868;47.360;18.984;2022-08-16T02:17:04;8.95;;;6.43;;
43817;SDS011;29868;47.360;18.984;2022-08-16T02:19:33;10.20;;;6.72;;
43817;SDS011;29868;47.360;18.984;2022-08-16T02:22:00;8.60;;;5.68;;
43817;SDS011;29868;47.360;18.984;2022-08-16T02:24:28;8.95;;;6.28;;
43817;SDS011;29868;47.360;18.984;2022-08-16T02:26:53;11.50;;;6.20;;
43817;SDS011;29868;47.360;18.984;2022-08-16T02:29:20;11.65;;;6.72;;
43817;SDS011;29868;47.360;18.984;2022-08-16T02:31:46;9.70;;;6.28;;
43817;SDS011;29868;47.360;18.984;2022-08-16T02:34:13;9.80;;;6.55;;
43817;SDS011;29868;47.360;18.984;2022-08-16T02:36:40;10.45;;;6.47;;
43817;SDS011;29868;47.360;18.984;2022-08-16T02:39:08;10.98;;;6.25;;
43817;SDS011;29868;47.360;18.984;2022-08-16T02:41:35;11.80;;;6.75;;
43817;SDS011;29868;47.360;18.984;2022-08-16T02:44:01;11.50;;;7.40;;
43817;SDS011;29868;47.360;18.984;2022-08-16T02:46:27;9.40;;;6.45;;
43817;SDS011;29868;47.360;18.984;2022-08-16T02:48:52;9.00;;;6.40;;
43817;SDS011;29868;47.360;18.984;2022-08-16T02:51:18;9.57;;;6.93;;
43817;SDS011;29868;47.360;18.984;2022-08-16T02:53:45;11.85;;;7.13;;
43817;SDS011;29868;47.360;18.984;2022-08-16T02:56:12;9.38;;;6.65;;
43817;SDS011;29868;47.360;18.984;2022-08-16T02:58:39;9.40;;;7.00;;
43817;SDS011;29868;47.360;18.984;2022-08-16T03:01:05;11.52;;;6.82;;
43817;SDS011;29868;47.360;18.984;2022-08-16T03:03:31;10.60;;;6.93;;
43817;SDS011;29868;47.360;18.984;2022-08-16T03:05:58;10.38;;;6.90;;
43817;SDS011;29868;47.360;18.984;2022-08-16T03:08:24;9.70;;;7.03;;
43817;SDS011;29868;47.360;18.984;2022-08-16T03:10:50;9.10;;;6.60;;
43817;SDS011;29868;47.360;18.984;2022-08-16T03:13:15;10.88;;;6.97;;
43817;SDS011;29868;47.360;18.984;2022-08-16T03:15:41;11.57;;;7.40;;
43817;SDS011;29868;47.360;18.984;2022-08-16T03:18:08;12.38;;;7.13;;
43817;SDS011;29868;47.360;18.984;2022-08-16T03:20:34;10.30;;;6.82;;
43817;SDS011;29868;47.360;18.984;2022-08-16T03:23:01;10.70;;;6.93;;
43817;SDS011;29868;47.360;18.984;2022-08-16T03:25:27;9.88;;;6.78;;
43817;SDS011;29868;47.360;18.984;2022-08-16T03:27:54;10.20;;;6.88;;
43817;SDS011;29868;47.360;18.984;2022-08-16T03:30:21;9.70;;;7.03;;
43817;SDS011;29868;47.360;18.984;2022-08-16T03:32:50;10.98;;;7.45;;
43817;SDS011;29868;47.360;18.984;2022-08-16T03:35:16;12.13;;;7.15;;
43817;SDS011;29868;47.360;18.984;2022-08-16T03:37:42;11.93;;;7.30;;
43817;SDS011;29868;47.360;18.984;2022-08-16T03:40:10;10.38;;;6.97;;
43817;SDS011;29868;47.360;18.984;2022-08-16T03:42:36;12.13;;;7.13;;
43817;SDS011;29868;47.360;18.984;2022-08-16T03:45:02;11.93;;;7.75;;
43817;SDS011;29868;47.360;18.984;2022-08-16T03:47:27;12.15;;;7.63;;
43817;SDS011;29868;47.360;18.984;2022-08-16T03:49:54;12.75;;;7.55;;
43817;SDS011;29868;47.360;18.984;2022-08-16T03:52:20;11.25;;;6.95;;
43817;SDS011;29868;47.360;18.984;2022-08-16T03:54:47;11.07;;;7.63;;
43817;SDS011;29868;47.360;18.984;2022-08-16T03:57:12;11.45;;;7.07;;
43817;SDS011;29868;47.360;18.984;2022-08-16T03:59:38;10.15;;;6.97;;
43817;SDS011;29868;47.360;18.984;2022-08-16T04:02:04;11.18;;;7.68;;
43817;SDS011;29868;47.360;18.984;2022-08-16T04:04:29;11.77;;;7.45;;
43817;SDS011;29868;47.360;18.984;2022-08-16T04:06:55;11.43;;;7.32;;
43817;SDS011;29868;47.360;18.984;2022-08-16T04:09:21;9.15;;;6.93;;
43817;SDS011;29868;47.360;18.984;2022-08-16T04:11:46;10.93;;;7.43;;
43817;SDS011;29868;47.360;18.984;2022-08-16T04:14:12;11.38;;;7.38;;
43817;SDS011;29868;47.360;18.984;2022-08-16T04:16:37;11.20;;;7.57;;
43817;SDS011;29868;47.360;18.984;2022-08-16T04:19:03;11.35;;;7.72;;
43817;SDS011;29868;47.360;18.984;2022-08-16T04:21:29;13.63;;;7.93;;
43817;SDS011;29868;47.360;18.984;2022-08-16T04:23:55;11.93;;;7.80;;
43817;SDS011;29868;47.360;18.984;2022-08-16T04:26:21;10.93;;;7.43;;
43817;SDS011;29868;47.360;18.984;2022-08-16T04:28:46;11.73;;;8.07;;
43817;SDS011;29868;47.360;18.984;2022-08-16T04:31:11;11.18;;;6.72;;
43817;SDS011;29868;47.360;18.984;2022-08-16T04:33:37;12.50;;;7.57;;
43817;SDS011;29868;47.360;18.984;2022-08-16T04:36:02;10.93;;;7.65;;
43817;SDS011;29868;47.360;18.984;2022-08-16T04:38:28;13.88;;;7.25;;
43817;SDS011;29868;47.360;18.984;2022-08-16T04:40:53;10.10;;;6.97;;
43817;SDS011;29868;47.360;18.984;2022-08-16T04:43:19;10.45;;;6.63;;
43817;SDS011;29868;47.360;18.984;2022-08-16T04:45:45;10.68;;;6.88;;
43817;SDS011;29868;47.360;18.984;2022-08-16T04:48:11;10.32;;;6.80;;
43817;SDS011;29868;47.360;18.984;2022-08-16T04:50:36;10.57;;;7.38;;
43817;SDS011;29868;47.360;18.984;2022-08-16T04:53:02;9.55;;;6.85;;
43817;SDS011;29868;47.360;18.984;2022-08-16T04:55:28;11.25;;;7.07;;
43817;SDS011;29868;47.360;18.984;2022-08-16T04:57:55;11.10;;;7.55;;
43817;SDS011;29868;47.360;18.984;2022-08-16T05:00:28;10.98;;;6.80;;
43817;SDS011;29868;47.360;18.984;2022-08-16T05:03:07;10.82;;;6.97;;
43817;SDS011;29868;47.360;18.984;2022-08-16T05:05:35;11.80;;;6.88;;
43817;SDS011;29868;47.360;18.984;2022-08-16T05:08:03;10.55;;;7.03;;
43817;SDS011;29868;47.360;18.984;2022-08-16T05:10:29;9.85;;;7.20;;
43817;SDS011;29868;47.360;18.984;2022-08-16T05:12:54;11.48;;;6.90;;
43817;SDS011;29868;47.360;18.984;2022-08-16T05:15:20;10.15;;;6.88;;
43817;SDS011;29868;47.360;18.984;2022-08-16T05:17:46;11.70;;;6.75;;
43817;SDS011;29868;47.360;18.984;2022-08-16T05:20:12;10.07;;;6.85;;
43817;SDS011;29868;47.360;18.984;2022-08-16T05:22:38;9.88;;;6.88;;
43817;SDS011;29868;47.360;18.984;2022-08-16T05:25:04;13.80;;;6.65;;
43817;SDS011;29868;47.360;18.984;2022-08-16T05:27:31;9.82;;;6.68;;
43817;SDS011;29868;47.360;18.984;2022-08-16T05:29:56;10.07;;;6.72;;
43817;SDS011;29868;47.360;18.984;2022-08-16T05:32:22;12.00;;;6.78;;
43817;SDS011;29868;47.360;18.984;2022-08-16T05:34:47;9.35;;;6.93;;
43817;SDS011;29868;47.360;18.984;2022-08-16T05:37:13;15.20;;;7.22;;
43817;SDS011;29868;47.360;18.984;2022-08-16T05:39:38;11.73;;;6.60;;
43817;SDS011;29868;47.360;18.984;2022-08-16T05:42:04;10.95;;;6.47;;
43817;SDS011;29868;47.360;18.984;2022-08-16T05:44:29;11.90;;;6.43;;
43817;SDS011;29868;47.360;18.984;2022-08-16T05:46:56;11.30;;;6.72;;
43817;SDS011;29868;47.360;18.984;2022-08-16T05:49:24;12.90;;;6.75;;
43817;SDS011;29868;47.360;18.984;2022-08-16T05:51:51;10.77;;;7.00;;
43817;SDS011;29868;47.360;18.984;2022-08-16T05:54:18;9.35;;;6.68;;
43817;SDS011;29868;47.360;18.984;2022-08-16T05:56:44;10.40;;;6.53;;
43817;SDS011;29868;47.360;18.984;2022-08-16T05:59:13;11.98;;;6.43;;
43817;SDS011;29868;47.360;18.984;2022-08-16T06:01:41;11.38;;;5.88;;
43817;SDS011;29868;47.360;18.984;2022-08-16T06:04:10;9.48;;;6.05;;
43817;SDS011;29868;47.360;18.984;2022-08-16T06:06:38;8.00;;;5.38;;
43817;SDS011;29868;47.360;18.984;2022-08-16T06:09:04;8.93;;;5.85;;
43817;SDS011;29868;47.360;18.984;2022-08-16T06:11:30;11.93;;;5.72;;
43817;SDS011;29868;47.360;18.984;2022-08-16T06:13:55;7.80;;;5.20;;
43817;SDS011;29868;47.360;18.984;2022-08-16T06:16:21;7.32;;;5.53;;
43817;SDS011;29868;47.360;18.984;2022-08-16T06:18:46;8.00;;;5.60;;
43817;SDS011;29868;47.360;18.984;2022-08-16T06:21:12;6.40;;;5.00;;
43817;SDS011;29868;47.360;18.984;2022-08-16T06:23:38;8.57;;;5.38;;
43817;SDS011;29868;47.360;18.984;2022-08-16T06:26:04;8.85;;;5.40;;
43817;SDS011;29868;47.360;18.984;2022-08-16T06:28:30;10.38;;;5.40;;
43817;SDS011;29868;47.360;18.984;2022-08-16T06:30:55;9.57;;;5.50;;
43817;SDS011;29868;47.360;18.984;2022-08-16T06:33:21;8.27;;;5.10;;
43817;SDS011;29868;47.360;18.984;2022-08-16T06:35:47;14.60;;;5.40;;
43817;SDS011;29868;47.360;18.984;2022-08-16T06:38:13;7.70;;;5.13;;
43817;SDS011;29868;47.360;18.984;2022-08-16T06:40:39;9.45;;;5.10;;
43817;SDS011;29868;47.360;18.984;2022-08-16T06:43:05;13.38;;;5.32;;
43817;SDS011;29868;47.360;18.984;2022-08-16T06:45:30;7.35;;;4.70;;
43817;SDS011;29868;47.360;18.984;2022-08-16T06:47:56;6.95;;;5.03;;
43817;SDS011;29868;47.360;18.984;2022-08-16T06:50:22;8.65;;;5.18;;
43817;SDS011;29868;47.360;18.984;2022-08-16T06:52:48;8.85;;;5.03;;
43817;SDS011;29868;47.360;18.984;2022-08-16T06:55:14;8.00;;;4.80;;
43817;SDS011;29868;47.360;18.984;2022-08-16T06:57:40;9.38;;;4.85;;
43817;SDS011;29868;47.360;18.984;2022-08-16T07:00:07;11.82;;;5.63;;
43817;SDS011;29868;47.360;18.984;2022-08-16T07:02:41;10.55;;;6.13;;
43817;SDS011;29868;47.360;18.984;2022-08-16T07:05:08;9.95;;;5.55;;
43817;SDS011;29868;47.360;18.984;2022-08-16T07:07:35;9.95;;;5.65;;
43817;SDS011;29868;47.360;18.984;2022-08-16T07:10:00;10.57;;;5.50;;
43817;SDS011;29868;47.360;18.984;2022-08-16T07:12:27;11.45;;;5.60;;
43817;SDS011;29868;47.360;18.984;2022-08-16T07:14:53;13.25;;;6.00;;
43817;SDS011;29868;47.360;18.984;2022-08-16T07:17:18;8.90;;;5.00;;
43817;SDS011;29868;47.360;18.984;2022-08-16T07:19:45;10.23;;;5.10;;
43817;SDS011;29868;47.360;18.984;2022-08-16T07:22:11;11.80;;;5.00;;
43817;SDS011;29868;47.360;18.984;2022-08-16T07:24:36;10.90;;;4.60;;
43817;SDS011;29868;47.360;18.984;2022-08-16T07:27:01;7.97;;;4.60;;
43817;SDS011;29868;47.360;18.984;2022-08-16T07:29:27;7.00;;;4.07;;
43817;SDS011;29868;47.360;18.984;2022-08-16T07:31:53;8.50;;;4.43;;
43817;SDS011;29868;47.360;18.984;2022-08-16T07:34:18;6.97;;;4.40;;
43817;SDS011;29868;47.360;18.984;2022-08-16T07:36:44;8.35;;;4.32;;
43817;SDS011;29868;47.360;18.984;2022-08-16T07:39:09;6.80;;;4.13;;
43817;SDS011;29868;47.360;18.984;2022-08-16T07:41:35;8.23;;;4.05;;
43817;SDS011;29868;47.360;18.984;2022-08-16T07:44:01;6.07;;;4.10;;
43817;SDS011;29868;47.360;18.984;2022-08-16T07:46:27;8.10;;;3.80;;
43817;SDS011;29868;47.360;18.984;2022-08-16T07:48:52;7.47;;;3.95;;
43817;SDS011;29868;47.360;18.984;2022-08-16T07:51:17;9.30;;;4.30;;
43817;SDS011;29868;47.360;18.984;2022-08-16T07:53:43;8.27;;;4.32;;
43817;SDS011;29868;47.360;18.984;2022-08-16T07:56:11;7.68;;;4.50;;
43817;SDS011;29868;47.360;18.984;2022-08-16T07:58:36;6.15;;;4.30;;
43817;SDS011;29868;47.360;18.984;2022-08-16T08:01:03;10.40;;;4.60;;
43817;SDS011;29868;47.360;18.984;2022-08-16T08:03:29;8.52;;;4.30;;
43817;SDS011;29868;47.360;18.984;2022-08-16T08:05:56;9.15;;;4.78;;
43817;SDS011;29868;47.360;18.984;2022-08-16T08:08:21;8.50;;;4.60;;
43817;SDS011;29868;47.360;18.984;2022-08-16T08:10:47;9.43;;;4.60;;
43817;SDS011;29868;47.360;18.984;2022-08-16T08:13:12;7.95;;;4.18;;
43817;SDS011;29868;47.360;18.984;2022-08-16T08:15:39;9.60;;;4.05;;
43817;SDS011;29868;47.360;18.984;2022-08-16T08:18:04;5.57;;;3.50;;
43817;SDS011;29868;47.360;18.984;2022-08-16T08:20:30;5.65;;;3.55;;
43817;SDS011;29868;47.360;18.984;2022-08-16T08:22:56;6.32;;;3.72;;
43817;SDS011;29868;47.360;18.984;2022-08-16T08:25:22;8.40;;;3.80;;
43817;SDS011;29868;47.360;18.984;2022-08-16T08:27:48;9.68;;;4.38;;
43817;SDS011;29868;47.360;18.984;2022-08-16T08:30:14;9.13;;;4.10;;
43817;SDS011;29868;47.360;18.984;2022-08-16T08:32:40;6.88;;;4.20;;
43817;SDS011;29868;47.360;18.984;2022-08-16T08:35:06;9.05;;;4.30;;
43817;SDS011;29868;47.360;18.984;2022-08-16T08:37:33;8.18;;;4.20;;
43817;SDS011;29868;47.360;18.984;2022-08-16T08:40:01;7.43;;;4.30;;
43817;SDS011;29868;47.360;18.984;2022-08-16T08:42:28;6.93;;;4.30;;
43817;SDS011;29868;47.360;18.984;2022-08-16T08:44:54;9.00;;;4.88;;
43817;SDS011;29868;47.360;18.984;2022-08-16T08:47:19;6.03;;;4.20;;
43817;SDS011;29868;47.360;18.984;2022-08-16T08:49:45;6.97;;;3.67;;
43817;SDS011;29868;47.360;18.984;2022-08-16T08:52:11;5.35;;;3.63;;
43817;SDS011;29868;47.360;18.984;2022-08-16T08:54:37;8.30;;;3.40;;
43817;SDS011;29868;47.360;18.984;2022-08-16T08:57:03;5.13;;;3.42;;
43817;SDS011;29868;47.360;18.984;2022-08-16T08:59:31;4.82;;;3.08;;
43817;SDS011;29868;47.360;18.984;2022-08-16T09:01:57;5.95;;;3.25;;
43817;SDS011;29868;47.360;18.984;2022-08-16T09:04:24;7.13;;;2.83;;
43817;SDS011;29868;47.360;18.984;2022-08-16T09:06:49;5.53;;;2.90;;
43817;SDS011;29868;47.360;18.984;2022-08-16T09:09:17;5.35;;;3.45;;
43817;SDS011;29868;47.360;18.984;2022-08-16T09:11:43;6.13;;;3.50;;
43817;SDS011;29868;47.360;18.984;2022-08-16T09:14:10;5.53;;;3.20;;
43817;SDS011;29868;47.360;18.984;2022-08-16T09:16:35;4.85;;;3.60;;
43817;SDS011;29868;47.360;18.984;2022-08-16T09:19:01;4.63;;;3.53;;
43817;SDS011;29868;47.360;18.984;2022-08-16T09:21:26;5.90;;;3.80;;
43817;SDS011;29868;47.360;18.984;2022-08-16T09:23:52;5.90;;;3.70;;
43817;SDS011;29868;47.360;18.984;2022-08-16T09:26:18;6.82;;;3.72;;
43817;SDS011;29868;47.360;18.984;2022-08-16T09:28:43;6.03;;;3.88;;
43817;SDS011;29868;47.360;18.984;2022-08-16T09:31:10;4.28;;;3.63;;
43817;SDS011;29868;47.360;18.984;2022-08-16T09:33:37;5.38;;;3.53;;
43817;SDS011;29868;47.360;18.984;2022-08-16T09:36:03;6.72;;;3.83;;
43817;SDS011;29868;47.360;18.984;2022-08-16T09:38:31;6.43;;;3.70;;
43817;SDS011;29868;47.360;18.984;2022-08-16T09:40:58;5.65;;;3.70;;
43817;SDS011;29868;47.360;18.984;2022-08-16T09:43:25;4.50;;;3.53;;
43817;SDS011;29868;47.360;18.984;2022-08-16T09:45:51;4.70;;;3.25;;
43817;SDS011;29868;47.360;18.984;2022-08-16T09:48:16;8.75;;;3.70;;
43817;SDS011;29868;47.360;18.984;2022-08-16T09:50:43;6.78;;;3.30;;
43817;SDS011;29868;47.360;18.984;2022-08-16T09:53:13;4.53;;;3.60;;
43817;SDS011;29868;47.360;18.984;2022-08-16T09:55:43;5.93;;;3.85;;
43817;SDS011;29868;47.360;18.984;2022-08-16T09:58:11;5.28;;;3.60;;
43817;SDS011;29868;47.360;18.984;2022-08-16T10:00:36;5.93;;;3.65;;
43817;SDS011;29868;47.360;18.984;2022-08-16T10:03:02;5.05;;;3.85;;
43817;SDS011;29868;47.360;18.984;2022-08-16T10:05:29;6.05;;;3.58;;
43817;SDS011;29868;47.360;18.984;2022-08-16T10:07:56;6.82;;;3.50;;
43817;SDS011;29868;47.360;18.984;2022-08-16T10:10:22;5.80;;;3.38;;
43817;SDS011;29868;47.360;18.984;2022-08-16T10:12:48;6.65;;;3.33;;
43817;SDS011;29868;47.360;18.984;2022-08-16T10:15:33;4.72;;;3.42;;
43817;SDS011;29868;47.360;18.984;2022-08-16T10:18:00;4.53;;;3.25;;
43817;SDS011;29868;47.360;18.984;2022-08-16T10:20:26;4.60;;;3.40;;
43817;SDS011;29868;47.360;18.984;2022-08-16T10:22:52;5.53;;;3.67;;
43817;SDS011;29868;47.360;18.984;2022-08-16T10:25:18;5.40;;;3.45;;
43817;SDS011;29868;47.360;18.984;2022-08-16T10:27:45;5.55;;;3.20;;
43817;SDS011;29868;47.360;18.984;2022-08-16T10:30:12;5.55;;;3.25;;
43817;SDS011;29868;47.360;18.984;2022-08-16T10:32:39;4.32;;;3.22;;
43817;SDS011;29868;47.360;18.984;2022-08-16T10:35:04;5.15;;;3.22;;
43817;SDS011;29868;47.360;18.984;2022-08-16T10:37:30;5.18;;;3.10;;
43817;SDS011;29868;47.360;18.984;2022-08-16T10:39:56;4.72;;;3.17;;
43817;SDS011;29868;47.360;18.984;2022-08-16T10:42:21;4.40;;;2.70;;
43817;SDS011;29868;47.360;18.984;2022-08-16T10:44:47;6.13;;;2.80;;
43817;SDS011;29868;47.360;18.984;2022-08-16T10:47:13;3.25;;;2.78;;
43817;SDS011;29868;47.360;18.984;2022-08-16T10:49:39;4.07;;;3.38;;
43817;SDS011;29868;47.360;18.984;2022-08-16T10:52:05;3.88;;;2.92;;
43817;SDS011;29868;47.360;18.984;2022-08-16T10:54:31;6.65;;;2.92;;
43817;SDS011;29868;47.360;18.984;2022-08-16T10:56:57;4.50;;;2.63;;
43817;SDS011;29868;47.360;18.984;2022-08-16T10:59:24;3.60;;;2.78;;
43817;SDS011;29868;47.360;18.984;2022-08-16T11:01:50;5.47;;;2.85;;
43817;SDS011;29868;47.360;18.984;2022-08-16T11:04:16;4.97;;;3.10;;
43817;SDS011;29868;47.360;18.984;2022-08-16T11:06:42;3.85;;;2.90;;
43817;SDS011;29868;47.360;18.984;2022-08-16T11:09:08;3.88;;;2.88;;
43817;SDS011;29868;47.360;18.984;2022-08-16T11:11:33;3.90;;;3.00;;
43817;SDS011;29868;47.360;18.984;2022-08-16T11:13:58;5.22;;;3.10;;
43817;SDS011;29868;47.360;18.984;2022-08-16T11:16:24;3.72;;;3.13;;
43817;SDS011;29868;47.360;18.984;2022-08-16T11:18:52;4.18;;;2.97;;
43817;SDS011;29868;47.360;18.984;2022-08-16T11:21:18;4.55;;;2.97;;
43817;SDS011;29868;47.360;18.984;2022-08-16T11:23:45;4.55;;;3.15;;
43817;SDS011;29868;47.360;18.984;2022-08-16T11:26:10;5.43;;;3.05;;
43817;SDS011;29868;47.360;18.984;2022-08-16T11:28:35;4.40;;;3.28;;
43817;SDS011;29868;47.360;18.984;2022-08-16T11:31:01;4.93;;;2.70;;
43817;SDS011;29868;47.360;18.984;2022-08-16T11:33:27;4.78;;;3.10;;
43817;SDS011;29868;47.360;18.984;2022-08-16T11:35:52;4.10;;;3.08;;
43817;SDS011;29868;47.360;18.984;2022-08-16T11:38:19;4.60;;;3.40;;
43817;SDS011;29868;47.360;18.984;2022-08-16T11:40:50;3.83;;;2.97;;
43817;SDS011;29868;47.360;18.984;2022-08-16T11:43:22;4.38;;;3.05;;
43817;SDS011;29868;47.360;18.984;2022-08-16T11:45:50;5.90;;;3.22;;
43817;SDS011;29868;47.360;18.984;2022-08-16T11:48:16;4.57;;;3.25;;
43817;SDS011;29868;47.360;18.984;2022-08-16T11:50:43;4.68;;;3.20;;
43817;SDS011;29868;47.360;18.984;2022-08-16T11:53:10;3.90;;;2.90;;
43817;SDS011;29868;47.360;18.984;2022-08-16T11:55:37;4.43;;;3.10;;
43817;SDS011;29868;47.360;18.984;2022-08-16T11:58:06;7.68;;;3.15;;
43817;SDS011;29868;47.360;18.984;2022-08-16T12:00:34;4.53;;;3.38;;
43817;SDS011;29868;47.360;18.984;2022-08-16T12:03:01;6.32;;;3.30;;
43817;SDS011;29868;47.360;18.984;2022-08-16T12:05:27;4.45;;;2.90;;
43817;SDS011;29868;47.360;18.984;2022-08-16T12:07:53;6.20;;;2.95;;
43817;SDS011;29868;47.360;18.984;2022-08-16T12:10:23;7.68;;;3.47;;
43817;SDS011;29868;47.360;18.984;2022-08-16T12:12:49;5.15;;;3.30;;
43817;SDS011;29868;47.360;18.984;2022-08-16T12:15:16;5.80;;;3.50;;
43817;SDS011;29868;47.360;18.984;2022-08-16T12:17:42;5.57;;;3.00;;
43817;SDS011;29868;47.360;18.984;2022-08-16T12:20:13;4.53;;;3.22;;
43817;SDS011;29868;47.360;18.984;2022-08-16T12:22:41;5.00;;;3.13;;
43817;SDS011;29868;47.360;18.984;2022-08-16T12:25:08;7.57;;;3.70;;
43817;SDS011;29868;47.360;18.984;2022-08-16T12:27:36;8.48;;;3.47;;
43817;SDS011;29868;47.360;18.984;2022-08-16T12:30:03;5.72;;;3.20;;
43817;SDS011;29868;47.360;18.984;2022-08-16T12:32:30;6.88;;;3.60;;
43817;SDS011;29868;47.360;18.984;2022-08-16T12:34:55;5.05;;;3.53;;
43817;SDS011;29868;47.360;18.984;2022-08-16T12:37:22;6.10;;;3.42;;
43817;SDS011;29868;47.360;18.984;2022-08-16T12:39:48;5.90;;;3.45;;
43817;SDS011;29868;47.360;18.984;2022-08-16T12:42:14;4.40;;;2.97;;
43817;SDS011;29868;47.360;18.984;2022-08-16T12:44:44;7.63;;;3.72;;
43817;SDS011;29868;47.360;18.984;2022-08-16T12:47:09;4.65;;;3.30;;
43817;SDS011;29868;47.360;18.984;2022-08-16T12:49:54;4.78;;;3.00;;
43817;SDS011;29868;47.360;18.984;2022-08-16T12:52:19;5.40;;;3.63;;
43817;SDS011;29868;47.360;18.984;2022-08-16T12:54:44;5.97;;;3.38;;
43817;SDS011;29868;47.360;18.984;2022-08-16T12:57:10;5.00;;;3.40;;
43817;SDS011;29868;47.360;18.984;2022-08-16T12:59:36;4.43;;;3.17;;
43817;SDS011;29868;47.360;18.984;2022-08-16T13:02:03;4.97;;;3.38;;
43817;SDS011;29868;47.360;18.984;2022-08-16T13:04:30;4.25;;;3.33;;
43817;SDS011;29868;47.360;18.984;2022-08-16T13:06:57;4.13;;;3.17;;
43817;SDS011;29868;47.360;18.984;2022-08-16T13:09:23;4.47;;;3.17;;
43817;SDS011;29868;47.360;18.984;2022-08-16T13:11:58;4.30;;;3.13;;
43817;SDS011;29868;47.360;18.984;2022-08-16T13:14:40;4.43;;;3.20;;
43817;SDS011;29868;47.360;18.984;2022-08-16T13:17:09;5.38;;;3.53;;
43817;SDS011;29868;47.360;18.984;2022-08-16T13:19:37;3.95;;;3.28;;
43817;SDS011;29868;47.360;18.984;2022-08-16T13:22:03;5.53;;;3.47;;
43817;SDS011;29868;47.360;18.984;2022-08-16T13:24:29;8.18;;;3.50;;
43817;SDS011;29868;47.360;18.984;2022-08-16T13:26:54;3.95;;;3.15;;
43817;SDS011;29868;47.360;18.984;2022-08-16T13:29:20;5.50;;;3.70;;
43817;SDS011;29868;47.360;18.984;2022-08-16T13:31:45;4.28;;;3.40;;
43817;SDS011;29868;47.360;18.984;2022-08-16T13:34:10;5.70;;;3.20;;
43817;SDS011;29868;47.360;18.984;2022-08-16T13:36:36;6.50;;;3.05;;
43817;SDS011;29868;47.360;18.984;2022-08-16T13:39:02;4.10;;;3.20;;
43817;SDS011;29868;47.360;18.984;2022-08-16T13:41:29;5.70;;;3.30;;
43817;SDS011;29868;47.360;18.984;2022-08-16T13:43:54;4.75;;;3.33;;
43817;SDS011;29868;47.360;18.984;2022-08-16T13:46:20;5.00;;;3.58;;
43817;SDS011;29868;47.360;18.984;2022-08-16T13:48:46;4.00;;;3.20;;
43817;SDS011;29868;47.360;18.984;2022-08-16T13:51:12;6.13;;;3.60;;
43817;SDS011;29868;47.360;18.984;2022-08-16T13:53:40;4.15;;;3.28;;
43817;SDS011;29868;47.360;18.984;2022-08-16T13:56:05;3.85;;;3.10;;
43817;SDS011;29868;47.360;18.984;2022-08-16T13:58:30;5.93;;;3.50;;
43817;SDS011;29868;47.360;18.984;2022-08-16T14:00:56;5.35;;;3.40;;
43817;SDS011;29868;47.360;18.984;2022-08-16T14:03:21;5.78;;;3.20;;
43817;SDS011;29868;47.360;18.984;2022-08-16T14:05:47;5.32;;;3.10;;
43817;SDS011;29868;47.360;18.984;2022-08-16T14:08:12;6.80;;;3.30;;
43817;SDS011;29868;47.360;18.984;2022-08-16T14:10:38;4.43;;;3.13;;
43817;SDS011;29868;47.360;18.984;2022-08-16T14:13:03;7.40;;;3.13;;
43817;SDS011;29868;47.360;18.984;2022-08-16T14:15:31;4.25;;;3.00;;
43817;SDS011;29868;47.360;18.984;2022-08-16T14:17:57;5.95;;;3.00;;
43817;SDS011;29868;47.360;18.984;2022-08-16T14:20:23;3.80;;;2.72;;
43817;SDS011;29868;47.360;18.984;2022-08-16T14:22:50;6.32;;;2.92;;
43817;SDS011;29868;47.360;18.984;2022-08-16T14:25:17;3.97;;;2.88;;
43817;SDS011;29868;47.360;18.984;2022-08-16T14:27:44;5.38;;;2.97;;
43817;SDS011;29868;47.360;18.984;2022-08-16T14:30:12;6.22;;;3.35;;
43817;SDS011;29868;47.360;18.984;2022-08-16T14:32:40;4.95;;;3.10;;
43817;SDS011;29868;47.360;18.984;2022-08-16T14:35:07;6.10;;;3.53;;